Terminal Aerodrome Forecast
Issued by NWS

Home | Current Version | Previous Version | Text Only | Print | Product List | Glossary On
Versions: 1 2 3 4 5 6 7 8 9 10 11 12
368
FTAK31 PAJN 082325
TAFAKT
TAF
PAKT 082325Z 0900/0924 24004KT P6SM SKC
     FM091800 33008KT P6SM SKC
      AMD LTD TO CLD VIS AND WIND 0906/0915=

USA.gov is the U.S. government's official web portal to all federal, state and local government web resources and services.